sensor_id;sensor_type;location;lat;lon;timestamp;pressure;altitude;pressure_sealevel;temperature;humidity
55685;BME280;41883;49.544;8.646;2023-02-19T00:01:00;101058.78;;;10.23;nan
55685;BME280;41883;49.544;8.646;2023-02-19T00:03:27;101066.00;;;10.21;nan
55685;BME280;41883;49.544;8.646;2023-02-19T00:05:52;101052.47;;;10.05;nan
55685;BME280;41883;49.544;8.646;2023-02-19T00:08:18;101042.16;;;9.92;nan
55685;BME280;41883;49.544;8.646;2023-02-19T00:10:43;101032.53;;;9.81;nan
55685;BME280;41883;49.544;8.646;2023-02-19T00:13:08;101029.44;;;9.76;nan
55685;BME280;41883;49.544;8.646;2023-02-19T00:15:33;101029.72;;;9.73;nan
55685;BME280;41883;49.544;8.646;2023-02-19T00:17:59;101031.66;;;9.71;nan
55685;BME280;41883;49.544;8.646;2023-02-19T00:20:24;101034.84;;;9.74;nan
55685;BME280;41883;49.544;8.646;2023-02-19T00:22:49;101037.81;;;9.81;nan
55685;BME280;41883;49.544;8.646;2023-02-19T00:25:15;101041.56;;;9.88;nan
55685;BME280;41883;49.544;8.646;2023-02-19T00:27:40;101039.63;;;9.90;nan
55685;BME280;41883;49.544;8.646;2023-02-19T00:30:05;101048.00;;;9.95;nan
55685;BME280;41883;49.544;8.646;2023-02-19T00:32:30;101044.66;;;10.03;nan
55685;BME280;41883;49.544;8.646;2023-02-19T00:34:56;101041.63;;;10.08;nan
55685;BME280;41883;49.544;8.646;2023-02-19T00:37:21;101049.31;;;10.11;nan
55685;BME280;41883;49.544;8.646;2023-02-19T00:39:46;101045.78;;;10.10;nan
55685;BME280;41883;49.544;8.646;2023-02-19T00:42:12;101044.84;;;10.11;nan
55685;BME280;41883;49.544;8.646;2023-02-19T00:44:37;101041.22;;;10.12;nan
55685;BME280;41883;49.544;8.646;2023-02-19T00:47:02;101040.97;;;10.15;nan
55685;BME280;41883;49.544;8.646;2023-02-19T00:49:27;101043.16;;;10.20;nan
55685;BME280;41883;49.544;8.646;2023-02-19T00:51:52;101046.69;;;10.20;nan
55685;BME280;41883;49.544;8.646;2023-02-19T00:54:18;101039.44;;;10.23;nan
55685;BME280;41883;49.544;8.646;2023-02-19T00:56:43;101043.03;;;10.21;nan
55685;BME280;41883;49.544;8.646;2023-02-19T00:59:09;101032.47;;;10.21;nan
55685;BME280;41883;49.544;8.646;2023-02-19T01:01:34;101036.66;;;10.24;nan
55685;BME280;41883;49.544;8.646;2023-02-19T01:03:59;101044.56;;;10.24;nan
55685;BME280;41883;49.544;8.646;2023-02-19T01:06:24;101039.16;;;10.26;nan
55685;BME280;41883;49.544;8.646;2023-02-19T01:08:50;101030.81;;;10.20;nan
55685;BME280;41883;49.544;8.646;2023-02-19T01:11:15;101041.38;;;10.20;nan
55685;BME280;41883;49.544;8.646;2023-02-19T01:13:41;101041.22;;;10.22;nan
55685;BME280;41883;49.544;8.646;2023-02-19T01:16:07;101037.88;;;10.20;nan
55685;BME280;41883;49.544;8.646;2023-02-19T01:18:36;101052.78;;;10.21;nan
55685;BME280;41883;49.544;8.646;2023-02-19T01:21:05;101048.22;;;10.23;nan
55685;BME280;41883;49.544;8.646;2023-02-19T01:23:31;101050.03;;;10.23;nan
55685;BME280;41883;49.544;8.646;2023-02-19T01:25:57;101041.94;;;10.24;nan
55685;BME280;41883;49.544;8.646;2023-02-19T01:28:22;101036.66;;;10.24;nan
55685;BME280;41883;49.544;8.646;2023-02-19T01:30:49;101027.75;;;10.25;nan
55685;BME280;41883;49.544;8.646;2023-02-19T01:33:15;101026.91;;;10.25;nan
55685;BME280;41883;49.544;8.646;2023-02-19T01:35:41;101019.97;;;10.24;nan
55685;BME280;41883;49.544;8.646;2023-02-19T01:38:07;101018.31;;;10.23;nan
55685;BME280;41883;49.544;8.646;2023-02-19T01:40:32;101019.66;;;10.07;nan
55685;BME280;41883;49.544;8.646;2023-02-19T01:42:57;101021.56;;;9.95;nan
55685;BME280;41883;49.544;8.646;2023-02-19T01:47:56;101025.09;;;9.65;nan
55685;BME280;41883;49.544;8.646;2023-02-19T01:50:23;101024.81;;;9.59;nan
55685;BME280;41883;49.544;8.646;2023-02-19T01:52:48;101018.00;;;9.56;nan
55685;BME280;41883;49.544;8.646;2023-02-19T01:55:14;101015.38;;;9.66;nan
55685;BME280;41883;49.544;8.646;2023-02-19T01:57:40;101011.25;;;9.73;nan
55685;BME280;41883;49.544;8.646;2023-02-19T02:00:08;101006.09;;;9.81;nan
55685;BME280;41883;49.544;8.646;2023-02-19T02:02:34;100995.41;;;9.83;nan
55685;BME280;41883;49.544;8.646;2023-02-19T02:05:00;100997.06;;;9.84;nan
55685;BME280;41883;49.544;8.646;2023-02-19T02:07:26;101000.53;;;9.84;nan
55685;BME280;41883;49.544;8.646;2023-02-19T02:10:09;101000.41;;;9.86;nan
55685;BME280;41883;49.544;8.646;2023-02-19T02:12:44;100999.47;;;9.87;nan
55685;BME280;41883;49.544;8.646;2023-02-19T02:15:09;101000.16;;;9.89;nan
55685;BME280;41883;49.544;8.646;2023-02-19T02:25:29;100989.56;;;9.89;nan
55685;BME280;41883;49.544;8.646;2023-02-19T02:30:55;100979.88;;;9.89;nan
55685;BME280;41883;49.544;8.646;2023-02-19T02:35:54;100976.38;;;9.89;nan
55685;BME280;41883;49.544;8.646;2023-02-19T02:38:22;100973.88;;;9.87;nan
55685;BME280;41883;49.544;8.646;2023-02-19T02:40:49;100981.22;;;9.84;nan
55685;BME280;41883;49.544;8.646;2023-02-19T02:43:15;100969.97;;;9.82;nan
55685;BME280;41883;49.544;8.646;2023-02-19T02:45:40;100967.47;;;9.80;nan
55685;BME280;41883;49.544;8.646;2023-02-19T02:48:07;100968.19;;;9.82;nan
55685;BME280;41883;49.544;8.646;2023-02-19T02:50:34;100973.72;;;9.79;nan
55685;BME280;41883;49.544;8.646;2023-02-19T02:53:02;100967.06;;;9.75;nan
55685;BME280;41883;49.544;8.646;2023-02-19T02:55:48;100966.19;;;9.74;nan
55685;BME280;41883;49.544;8.646;2023-02-19T02:58:16;100969.22;;;9.70;nan
55685;BME280;41883;49.544;8.646;2023-02-19T03:00:42;100960.63;;;9.68;nan
55685;BME280;41883;49.544;8.646;2023-02-19T03:03:28;100969.63;;;9.65;nan
55685;BME280;41883;49.544;8.646;2023-02-19T03:05:56;100961.16;;;9.62;nan
55685;BME280;41883;49.544;8.646;2023-02-19T03:08:24;100963.22;;;9.58;nan
55685;BME280;41883;49.544;8.646;2023-02-19T03:10:55;100966.28;;;9.53;nan
55685;BME280;41883;49.544;8.646;2023-02-19T03:13:29;100967.25;;;9.52;nan
55685;BME280;41883;49.544;8.646;2023-02-19T03:16:17;100956.13;;;9.49;nan
55685;BME280;41883;49.544;8.646;2023-02-19T03:19:02;100957.78;;;9.50;nan
55685;BME280;41883;49.544;8.646;2023-02-19T03:21:48;100955.84;;;9.42;nan
55685;BME280;41883;49.544;8.646;2023-02-19T03:24:14;100955.84;;;9.42;nan
55685;BME280;41883;49.544;8.646;2023-02-19T03:26:59;100955.13;;;9.40;nan
55685;BME280;41883;49.544;8.646;2023-02-19T03:29:26;100961.09;;;9.42;nan
55685;BME280;41883;49.544;8.646;2023-02-19T03:31:58;100961.50;;;9.38;nan
55685;BME280;41883;49.544;8.646;2023-02-19T03:34:26;100957.34;;;9.35;nan
55685;BME280;41883;49.544;8.646;2023-02-19T03:36:55;100950.13;;;9.37;nan
55685;BME280;41883;49.544;8.646;2023-02-19T03:39:23;100950.25;;;9.35;nan
55685;BME280;41883;49.544;8.646;2023-02-19T03:41:54;100946.63;;;9.36;nan
55685;BME280;41883;49.544;8.646;2023-02-19T03:51:52;100954.50;;;9.27;nan
55685;BME280;41883;49.544;8.646;2023-02-19T03:54:31;100953.13;;;9.23;nan
55685;BME280;41883;49.544;8.646;2023-02-19T03:57:18;100955.75;;;9.23;nan
55685;BME280;41883;49.544;8.646;2023-02-19T03:59:47;100956.88;;;9.20;nan
55685;BME280;41883;49.544;8.646;2023-02-19T04:02:18;100970.19;;;9.19;nan
55685;BME280;41883;49.544;8.646;2023-02-19T04:04:49;100972.94;;;9.17;nan
55685;BME280;41883;49.544;8.646;2023-02-19T04:07:15;100971.84;;;9.20;nan
55685;BME280;41883;49.544;8.646;2023-02-19T04:09:42;100973.53;;;9.21;nan
55685;BME280;41883;49.544;8.646;2023-02-19T04:12:08;100976.56;;;9.16;nan
55685;BME280;41883;49.544;8.646;2023-02-19T04:14:38;100983.31;;;9.09;nan
55685;BME280;41883;49.544;8.646;2023-02-19T04:17:07;100974.53;;;8.99;nan
55685;BME280;41883;49.544;8.646;2023-02-19T04:19:34;100977.84;;;9.01;nan
55685;BME280;41883;49.544;8.646;2023-02-19T04:22:01;100966.75;;;8.97;nan
55685;BME280;41883;49.544;8.646;2023-02-19T04:24:30;100976.13;;;8.90;nan
55685;BME280;41883;49.544;8.646;2023-02-19T04:26:57;100974.88;;;8.84;nan
55685;BME280;41883;49.544;8.646;2023-02-19T04:29:22;100982.56;;;8.76;nan
55685;BME280;41883;49.544;8.646;2023-02-19T04:31:48;100981.16;;;8.72;nan
55685;BME280;41883;49.544;8.646;2023-02-19T04:34:13;100979.88;;;8.66;nan
55685;BME280;41883;49.544;8.646;2023-02-19T04:36:38;100980.47;;;8.70;nan
55685;BME280;41883;49.544;8.646;2023-02-19T04:39:03;100979.53;;;8.60;nan
55685;BME280;41883;49.544;8.646;2023-02-19T04:41:28;100979.31;;;8.63;nan
55685;BME280;41883;49.544;8.646;2023-02-19T04:43:54;100972.72;;;8.57;nan
55685;BME280;41883;49.544;8.646;2023-02-19T04:46:19;100971.78;;;8.58;nan
55685;BME280;41883;49.544;8.646;2023-02-19T04:48:44;100975.75;;;8.53;nan
55685;BME280;41883;49.544;8.646;2023-02-19T04:51:09;100961.72;;;8.52;nan
55685;BME280;41883;49.544;8.646;2023-02-19T04:53:35;100965.56;;;8.48;nan
55685;BME280;41883;49.544;8.646;2023-02-19T04:56:04;100963.09;;;8.46;nan
55685;BME280;41883;49.544;8.646;2023-02-19T04:58:30;100973.03;;;8.43;nan
55685;BME280;41883;49.544;8.646;2023-02-19T05:00:55;100973.28;;;8.40;nan
55685;BME280;41883;49.544;8.646;2023-02-19T05:03:20;100978.78;;;8.37;nan
55685;BME280;41883;49.544;8.646;2023-02-19T05:05:45;100985.13;;;8.34;nan
55685;BME280;41883;49.544;8.646;2023-02-19T05:08:10;100981.53;;;8.35;nan
55685;BME280;41883;49.544;8.646;2023-02-19T05:10:36;100982.75;;;8.31;nan
55685;BME280;41883;49.544;8.646;2023-02-19T05:13:01;100991.38;;;8.33;nan
55685;BME280;41883;49.544;8.646;2023-02-19T05:15:26;100989.94;;;8.29;nan
55685;BME280;41883;49.544;8.646;2023-02-19T05:17:51;100998.56;;;8.31;nan
55685;BME280;41883;49.544;8.646;2023-02-19T05:20:16;100992.34;;;8.32;nan
55685;BME280;41883;49.544;8.646;2023-02-19T05:22:42;101015.47;;;8.28;nan
55685;BME280;41883;49.544;8.646;2023-02-19T05:25:07;101009.25;;;8.29;nan
55685;BME280;41883;49.544;8.646;2023-02-19T05:27:32;101003.97;;;8.29;nan
55685;BME280;41883;49.544;8.646;2023-02-19T05:29:57;101009.63;;;8.25;nan
55685;BME280;41883;49.544;8.646;2023-02-19T05:32:23;101008.63;;;8.26;nan
55685;BME280;41883;49.544;8.646;2023-02-19T05:34:49;101003.38;;;8.26;nan
55685;BME280;41883;49.544;8.646;2023-02-19T05:37:14;101014.88;;;8.25;nan
55685;BME280;41883;49.544;8.646;2023-02-19T05:39:40;101012.09;;;8.26;nan
55685;BME280;41883;49.544;8.646;2023-02-19T05:42:05;101017.63;;;8.23;nan
55685;BME280;41883;49.544;8.646;2023-02-19T05:44:30;101016.66;;;8.24;nan
55685;BME280;41883;49.544;8.646;2023-02-19T05:46:55;101017.63;;;8.23;nan
55685;BME280;41883;49.544;8.646;2023-02-19T05:49:21;101017.53;;;8.25;nan
55685;BME280;41883;49.544;8.646;2023-02-19T05:51:48;101020.16;;;8.25;nan
55685;BME280;41883;49.544;8.646;2023-02-19T05:54:14;101029.84;;;8.24;nan
55685;BME280;41883;49.544;8.646;2023-02-19T05:56:39;101030.44;;;8.28;nan
55685;BME280;41883;49.544;8.646;2023-02-19T05:59:21;101023.09;;;8.32;nan
55685;BME280;41883;49.544;8.646;2023-02-19T06:01:47;101013.78;;;8.27;nan
55685;BME280;41883;49.544;8.646;2023-02-19T06:04:13;101013.34;;;8.22;nan
55685;BME280;41883;49.544;8.646;2023-02-19T06:06:39;101016.91;;;8.21;nan
55685;BME280;41883;49.544;8.646;2023-02-19T06:09:05;101016.19;;;8.19;nan
55685;BME280;41883;49.544;8.646;2023-02-19T06:11:31;101013.56;;;8.19;nan
55685;BME280;41883;49.544;8.646;2023-02-19T06:13:56;101029.63;;;8.16;nan
55685;BME280;41883;49.544;8.646;2023-02-19T06:16:21;101041.00;;;8.17;nan
55685;BME280;41883;49.544;8.646;2023-02-19T06:18:47;101054.31;;;8.15;nan
55685;BME280;41883;49.544;8.646;2023-02-19T06:21:12;101065.69;;;8.16;nan
55685;BME280;41883;49.544;8.646;2023-02-19T06:23:38;101061.34;;;8.15;nan
55685;BME280;41883;49.544;8.646;2023-02-19T06:26:07;101066.88;;;8.12;nan
55685;BME280;41883;49.544;8.646;2023-02-19T06:28:33;101068.44;;;8.14;nan
55685;BME280;41883;49.544;8.646;2023-02-19T06:30:58;101075.50;;;8.14;nan
55685;BME280;41883;49.544;8.646;2023-02-19T06:33:24;101074.53;;;8.15;nan
55685;BME280;41883;49.544;8.646;2023-02-19T06:35:50;101070.13;;;8.15;nan
55685;BME280;41883;49.544;8.646;2023-02-19T06:38:15;101072.50;;;8.18;nan
55685;BME280;41883;49.544;8.646;2023-02-19T06:40:40;101073.81;;;8.13;nan
55685;BME280;41883;49.544;8.646;2023-02-19T06:43:05;101088.56;;;8.15;nan
55685;BME280;41883;49.544;8.646;2023-02-19T06:45:30;101092.03;;;8.16;nan
55685;BME280;41883;49.544;8.646;2023-02-19T06:47:56;101079.78;;;8.15;nan
55685;BME280;41883;49.544;8.646;2023-02-19T06:50:21;101087.59;;;8.16;nan
55685;BME280;41883;49.544;8.646;2023-02-19T06:52:46;101094.41;;;8.19;nan
55685;BME280;41883;49.544;8.646;2023-02-19T06:55:11;101097.03;;;8.19;nan
55685;BME280;41883;49.544;8.646;2023-02-19T06:57:36;101101.34;;;8.20;nan
55685;BME280;41883;49.544;8.646;2023-02-19T07:00:01;101107.56;;;8.19;nan
55685;BME280;41883;49.544;8.646;2023-02-19T07:02:28;101108.28;;;8.21;nan
55685;BME280;41883;49.544;8.646;2023-02-19T07:04:53;101116.31;;;8.19;nan
55685;BME280;41883;49.544;8.646;2023-02-19T07:07:18;101116.19;;;8.21;nan
55685;BME280;41883;49.544;8.646;2023-02-19T07:09:43;101111.50;;;8.24;nan
55685;BME280;41883;49.544;8.646;2023-02-19T07:12:09;101116.09;;;8.22;nan
55685;BME280;41883;49.544;8.646;2023-02-19T07:14:34;101123.84;;;8.24;nan
55685;BME280;41883;49.544;8.646;2023-02-19T07:16:59;101127.31;;;8.24;nan
55685;BME280;41883;49.544;8.646;2023-02-19T07:19:24;101123.75;;;8.25;nan
55685;BME280;41883;49.544;8.646;2023-02-19T07:21:50;101122.53;;;8.29;nan
55685;BME280;41883;49.544;8.646;2023-02-19T07:24:15;101124.78;;;8.34;nan
55685;BME280;41883;49.544;8.646;2023-02-19T07:26:40;101121.19;;;8.35;nan
55685;BME280;41883;49.544;8.646;2023-02-19T07:29:05;101115.59;;;8.40;nan
55685;BME280;41883;49.544;8.646;2023-02-19T07:31:31;101119.78;;;8.42;nan
55685;BME280;41883;49.544;8.646;2023-02-19T07:33:56;101118.69;;;8.45;nan
55685;BME280;41883;49.544;8.646;2023-02-19T07:36:22;101120.13;;;8.49;nan
55685;BME280;41883;49.544;8.646;2023-02-19T07:38:54;101126.59;;;8.56;nan
55685;BME280;41883;49.544;8.646;2023-02-19T07:41:20;101130.78;;;8.59;nan
55685;BME280;41883;49.544;8.646;2023-02-19T07:43:45;101131.59;;;8.59;nan
55685;BME280;41883;49.544;8.646;2023-02-19T07:46:11;101144.53;;;8.62;nan
55685;BME280;41883;49.544;8.646;2023-02-19T07:48:37;101143.44;;;8.65;nan
55685;BME280;41883;49.544;8.646;2023-02-19T07:51:05;101146.78;;;8.67;nan
55685;BME280;41883;49.544;8.646;2023-02-19T07:53:31;101134.44;;;8.67;nan
55685;BME280;41883;49.544;8.646;2023-02-19T07:56:00;101135.31;;;8.68;nan
55685;BME280;41883;49.544;8.646;2023-02-19T07:58:26;101146.41;;;8.71;nan
55685;BME280;41883;49.544;8.646;2023-02-19T08:00:51;101155.75;;;8.76;nan
55685;BME280;41883;49.544;8.646;2023-02-19T08:03:16;101145.56;;;8.82;nan
55685;BME280;41883;49.544;8.646;2023-02-19T08:05:41;101150.09;;;8.91;nan
55685;BME280;41883;49.544;8.646;2023-02-19T08:08:10;101153.75;;;9.00;nan
55685;BME280;41883;49.544;8.646;2023-02-19T08:10:36;101163.28;;;9.12;nan
55685;BME280;41883;49.544;8.646;2023-02-19T08:13:20;101164.22;;;9.23;nan
55685;BME280;41883;49.544;8.646;2023-02-19T08:18:13;101156.09;;;9.35;nan
55685;BME280;41883;49.544;8.646;2023-02-19T08:20:39;101161.56;;;9.44;nan
55685;BME280;41883;49.544;8.646;2023-02-19T08:23:04;101154.81;;;9.51;nan
55685;BME280;41883;49.544;8.646;2023-02-19T08:25:29;101157.06;;;9.55;nan
55685;BME280;41883;49.544;8.646;2023-02-19T08:27:54;101156.56;;;9.62;nan
55685;BME280;41883;49.544;8.646;2023-02-19T08:30:20;101159.06;;;9.63;nan
55685;BME280;41883;49.544;8.646;2023-02-19T08:32:45;101155.06;;;9.69;nan
55685;BME280;41883;49.544;8.646;2023-02-19T08:35:10;101167.50;;;9.78;nan
55685;BME280;41883;49.544;8.646;2023-02-19T08:37:35;101178.78;;;9.80;nan
55685;BME280;41883;49.544;8.646;2023-02-19T08:40:00;101184.56;;;9.74;nan
55685;BME280;41883;49.544;8.646;2023-02-19T08:42:27;101189.84;;;9.74;nan
55685;BME280;41883;49.544;8.646;2023-02-19T08:44:52;101183.91;;;9.82;nan
55685;BME280;41883;49.544;8.646;2023-02-19T08:47:17;101192.28;;;9.87;nan
55685;BME280;41883;49.544;8.646;2023-02-19T08:49:42;101197.47;;;9.98;nan
55685;BME280;41883;49.544;8.646;2023-02-19T08:52:07;101197.09;;;10.03;nan
55685;BME280;41883;49.544;8.646;2023-02-19T08:54:32;101211.84;;;10.05;nan
55685;BME280;41883;49.544;8.646;2023-02-19T08:56:58;101212.88;;;10.14;nan
55685;BME280;41883;49.544;8.646;2023-02-19T08:59:23;101217.22;;;10.25;nan
55685;BME280;41883;49.544;8.646;2023-02-19T09:01:48;101219.91;;;10.34;nan
55685;BME280;41883;49.544;8.646;2023-02-19T09:04:13;101215.63;;;10.33;nan
55685;BME280;41883;49.544;8.646;2023-02-19T09:06:38;101226.34;;;10.41;nan
55685;BME280;41883;49.544;8.646;2023-02-19T09:09:03;101229.66;;;10.34;nan
55685;BME280;41883;49.544;8.646;2023-02-19T09:11:29;101230.00;;;10.50;nan
55685;BME280;41883;49.544;8.646;2023-02-19T09:13:54;101231.00;;;10.49;nan
55685;BME280;41883;49.544;8.646;2023-02-19T09:16:20;101239.22;;;10.56;nan
55685;BME280;41883;49.544;8.646;2023-02-19T09:18:45;101238.56;;;10.63;nan
55685;BME280;41883;49.544;8.646;2023-02-19T09:21:10;101234.38;;;10.61;nan
55685;BME280;41883;49.544;8.646;2023-02-19T09:23:35;101240.38;;;10.63;nan
55685;BME280;41883;49.544;8.646;2023-02-19T09:26:01;101243.81;;;10.54;nan
55685;BME280;41883;49.544;8.646;2023-02-19T09:28:30;101240.97;;;10.46;nan
55685;BME280;41883;49.544;8.646;2023-02-19T09:30:55;101243.97;;;10.31;nan
55685;BME280;41883;49.544;8.646;2023-02-19T09:33:20;101248.44;;;10.31;nan
55685;BME280;41883;49.544;8.646;2023-02-19T09:35:46;101244.84;;;10.41;nan
55685;BME280;41883;49.544;8.646;2023-02-19T09:38:11;101244.75;;;10.22;nan
55685;BME280;41883;49.544;8.646;2023-02-19T09:40:36;101249.97;;;10.12;nan
55685;BME280;41883;49.544;8.646;2023-02-19T09:43:05;101254.31;;;10.13;nan
55685;BME280;41883;49.544;8.646;2023-02-19T09:45:30;101251.72;;;10.23;nan
55685;BME280;41883;49.544;8.646;2023-02-19T09:47:56;101245.56;;;10.44;nan
55685;BME280;41883;49.544;8.646;2023-02-19T09:50:24;101253.63;;;10.73;nan
55685;BME280;41883;49.544;8.646;2023-02-19T09:52:57;101259.25;;;10.99;nan
55685;BME280;41883;49.544;8.646;2023-02-19T09:57:50;101266.09;;;11.01;nan
55685;BME280;41883;49.544;8.646;2023-02-19T10:00:25;101261.50;;;11.13;nan
55685;BME280;41883;49.544;8.646;2023-02-19T10:02:53;101261.22;;;11.16;nan
55685;BME280;41883;49.544;8.646;2023-02-19T10:05:19;101258.72;;;11.24;nan
55685;BME280;41883;49.544;8.646;2023-02-19T10:07:46;101259.56;;;11.35;nan
55685;BME280;41883;49.544;8.646;2023-02-19T10:12:38;101255.09;;;11.55;nan
55685;BME280;41883;49.544;8.646;2023-02-19T10:15:09;101247.25;;;11.73;nan
55685;BME280;41883;49.544;8.646;2023-02-19T10:17:35;101248.13;;;11.93;nan
55685;BME280;41883;49.544;8.646;2023-02-19T10:20:01;101247.00;;;11.76;nan
55685;BME280;41883;49.544;8.646;2023-02-19T10:22:28;101249.09;;;11.72;nan
55685;BME280;41883;49.544;8.646;2023-02-19T10:24:54;101249.06;;;11.82;nan
55685;BME280;41883;49.544;8.646;2023-02-19T10:27:20;101253.69;;;11.99;nan
55685;BME280;41883;49.544;8.646;2023-02-19T10:29:45;101256.84;;;12.13;nan
55685;BME280;41883;49.544;8.646;2023-02-19T10:32:18;101257.50;;;12.24;nan
55685;BME280;41883;49.544;8.646;2023-02-19T10:34:47;101256.44;;;12.07;nan
55685;BME280;41883;49.544;8.646;2023-02-19T10:37:14;101269.56;;;12.09;nan
55685;BME280;41883;49.544;8.646;2023-02-19T10:39:41;101273.34;;;12.06;nan
55685;BME280;41883;49.544;8.646;2023-02-19T10:42:13;101277.34;;;12.10;nan
55685;BME280;41883;49.544;8.646;2023-02-19T10:44:41;101278.44;;;12.18;nan
55685;BME280;41883;49.544;8.646;2023-02-19T10:47:07;101282.03;;;12.36;nan
55685;BME280;41883;49.544;8.646;2023-02-19T10:49:40;101276.22;;;12.23;nan
55685;BME280;41883;49.544;8.646;2023-02-19T10:54:41;101275.91;;;14.51;nan
55685;BME280;41883;49.544;8.646;2023-02-19T10:59:50;101290.44;;;14.99;nan
55685;BME280;41883;49.544;8.646;2023-02-19T11:02:16;101290.84;;;15.37;nan
55685;BME280;41883;49.544;8.646;2023-02-19T11:05:00;101288.50;;;15.17;nan
55685;BME280;41883;49.544;8.646;2023-02-19T11:07:26;101305.56;;;14.30;nan
55685;BME280;41883;49.544;8.646;2023-02-19T11:09:51;101311.06;;;13.84;nan
55685;BME280;41883;49.544;8.646;2023-02-19T11:12:38;101310.09;;;13.49;nan
55685;BME280;41883;49.544;8.646;2023-02-19T11:15:17;101332.09;;;13.42;nan
55685;BME280;41883;49.544;8.646;2023-02-19T11:17:43;101328.19;;;12.90;nan
55685;BME280;41883;49.544;8.646;2023-02-19T11:20:13;101321.78;;;12.83;nan
55685;BME280;41883;49.544;8.646;2023-02-19T11:22:40;101328.72;;;12.94;nan
55685;BME280;41883;49.544;8.646;2023-02-19T11:27:54;101324.81;;;12.61;nan
55685;BME280;41883;49.544;8.646;2023-02-19T11:32:54;101323.34;;;12.76;nan
55685;BME280;41883;49.544;8.646;2023-02-19T11:35:20;101330.88;;;13.08;nan
55685;BME280;41883;49.544;8.646;2023-02-19T11:37:53;101331.22;;;13.23;nan
55685;BME280;41883;49.544;8.646;2023-02-19T11:40:21;101317.34;;;13.29;nan
55685;BME280;41883;49.544;8.646;2023-02-19T11:42:57;101308.72;;;13.17;nan
55685;BME280;41883;49.544;8.646;2023-02-19T11:45:28;101312.97;;;13.38;nan
55685;BME280;41883;49.544;8.646;2023-02-19T11:52:54;101314.72;;;13.47;nan
55685;BME280;41883;49.544;8.646;2023-02-19T12:00:43;101311.09;;;13.66;nan
55685;BME280;41883;49.544;8.646;2023-02-19T12:17:13;101303.25;;;12.73;nan
55685;BME280;41883;49.544;8.646;2023-02-19T12:19:27;101304.47;;;12.79;nan
55685;BME280;41883;49.544;8.646;2023-02-19T12:22:04;101326.00;;;12.76;nan
55685;BME280;41883;49.544;8.646;2023-02-19T12:30:23;101312.16;;;12.45;nan
55685;BME280;41883;49.544;8.646;2023-02-19T12:33:00;101317.69;;;12.61;nan
55685;BME280;41883;49.544;8.646;2023-02-19T12:35:34;101323.28;;;12.58;nan
55685;BME280;41883;49.544;8.646;2023-02-19T12:38:15;101306.69;;;12.56;nan
55685;BME280;41883;49.544;8.646;2023-02-19T12:43:11;101306.63;;;12.28;nan
55685;BME280;41883;49.544;8.646;2023-02-19T12:48:20;101310.44;;;12.16;nan
55685;BME280;41883;49.544;8.646;2023-02-19T12:50:50;101308.84;;;12.33;nan
55685;BME280;41883;49.544;8.646;2023-02-19T12:53:34;101305.63;;;12.29;nan
55685;BME280;41883;49.544;8.646;2023-02-19T12:56:04;101310.13;;;12.29;nan
55685;BME280;41883;49.544;8.646;2023-02-19T13:01:34;101305.25;;;12.62;nan
55685;BME280;41883;49.544;8.646;2023-02-19T13:06:54;101291.56;;;12.66;nan
55685;BME280;41883;49.544;8.646;2023-02-19T13:11:52;101288.88;;;12.94;nan
55685;BME280;41883;49.544;8.646;2023-02-19T13:16:58;101293.38;;;13.39;nan
55685;BME280;41883;49.544;8.646;2023-02-19T13:19:24;101284.72;;;13.55;nan
55685;BME280;41883;49.544;8.646;2023-02-19T13:21:52;101285.03;;;13.70;nan
55685;BME280;41883;49.544;8.646;2023-02-19T13:24:39;101283.22;;;13.52;nan
55685;BME280;41883;49.544;8.646;2023-02-19T13:37:20;101276.28;;;13.24;nan
55685;BME280;41883;49.544;8.646;2023-02-19T13:39:47;101279.44;;;13.09;nan
55685;BME280;41883;49.544;8.646;2023-02-19T13:42:32;101275.88;;;13.01;nan
55685;BME280;41883;49.544;8.646;2023-02-19T13:44:58;101278.91;;;13.06;nan
55685;BME280;41883;49.544;8.646;2023-02-19T13:50:15;101282.63;;;13.13;nan
55685;BME280;41883;49.544;8.646;2023-02-19T13:52:41;101289.25;;;13.09;nan
55685;BME280;41883;49.544;8.646;2023-02-19T13:55:38;101285.28;;;12.95;nan
55685;BME280;41883;49.544;8.646;2023-02-19T13:58:33;101286.53;;;12.91;nan
55685;BME280;41883;49.544;8.646;2023-02-19T14:00:53;101294.38;;;12.92;nan
55685;BME280;41883;49.544;8.646;2023-02-19T14:03:29;101296.56;;;12.97;nan
55685;BME280;41883;49.544;8.646;2023-02-19T14:05:59;101303.22;;;13.11;nan
55685;BME280;41883;49.544;8.646;2023-02-19T14:11:08;101301.81;;;13.07;nan
55685;BME280;41883;49.544;8.646;2023-02-19T14:16:36;101302.16;;;12.94;nan
55685;BME280;41883;49.544;8.646;2023-02-19T14:19:13;101309.69;;;12.99;nan
55685;BME280;41883;49.544;8.646;2023-02-19T14:21:39;101319.53;;;12.88;nan
55685;BME280;41883;49.544;8.646;2023-02-19T14:24:07;101329.25;;;12.98;nan
55685;BME280;41883;49.544;8.646;2023-02-19T14:26:35;101325.31;;;12.74;nan
55685;BME280;41883;49.544;8.646;2023-02-19T14:29:00;101334.09;;;12.74;nan
55685;BME280;41883;49.544;8.646;2023-02-19T14:33:54;101336.53;;;12.58;nan
55685;BME280;41883;49.544;8.646;2023-02-19T14:36:27;101341.22;;;12.37;nan
55685;BME280;41883;49.544;8.646;2023-02-19T14:39:00;101327.03;;;12.28;nan
55685;BME280;41883;49.544;8.646;2023-02-19T14:41:26;101342.25;;;12.16;nan
55685;BME280;41883;49.544;8.646;2023-02-19T14:43:54;101336.81;;;12.08;nan
55685;BME280;41883;49.544;8.646;2023-02-19T14:46:28;101341.84;;;12.01;nan
55685;BME280;41883;49.544;8.646;2023-02-19T14:48:55;101336.69;;;12.00;nan
55685;BME280;41883;49.544;8.646;2023-02-19T14:51:35;101340.16;;;12.00;nan
55685;BME280;41883;49.544;8.646;2023-02-19T14:54:26;101342.53;;;12.03;nan
55685;BME280;41883;49.544;8.646;2023-02-19T14:56:50;101345.63;;;12.08;nan
55685;BME280;41883;49.544;8.646;2023-02-19T14:59:24;101343.94;;;12.07;nan
55685;BME280;41883;49.544;8.646;2023-02-19T15:01:54;101349.78;;;12.11;nan
55685;BME280;41883;49.544;8.646;2023-02-19T15:04:23;101353.56;;;12.18;nan
55685;BME280;41883;49.544;8.646;2023-02-19T15:06:49;101350.75;;;12.20;nan
55685;BME280;41883;49.544;8.646;2023-02-19T15:09:16;101355.34;;;12.18;nan